sensor_id;sensor_type;location;lat;lon;timestamp;temperature;humidity
16663;DHT22;8445;51.270;9.434;2024-01-07T00:02:16;2.50;84.60
16663;DHT22;8445;51.270;9.434;2024-01-07T00:04:44;2.50;84.80
16663;DHT22;8445;51.270;9.434;2024-01-07T00:07:10;2.50;84.80
16663;DHT22;8445;51.270;9.434;2024-01-07T00:09:36;2.50;85.10
16663;DHT22;8445;51.270;9.434;2024-01-07T00:12:02;2.50;85.20
16663;DHT22;8445;51.270;9.434;2024-01-07T00:14:28;2.50;85.30
16663;DHT22;8445;51.270;9.434;2024-01-07T00:16:54;2.50;85.40
16663;DHT22;8445;51.270;9.434;2024-01-07T00:19:19;2.50;85.40
16663;DHT22;8445;51.270;9.434;2024-01-07T00:21:47;2.50;85.40
16663;DHT22;8445;51.270;9.434;2024-01-07T00:24:12;2.50;85.60
16663;DHT22;8445;51.270;9.434;2024-01-07T00:26:38;2.40;85.70
16663;DHT22;8445;51.270;9.434;2024-01-07T00:29:05;2.40;85.70
16663;DHT22;8445;51.270;9.434;2024-01-07T00:31:31;2.40;85.70
16663;DHT22;8445;51.270;9.434;2024-01-07T00:34:00;2.40;85.50
16663;DHT22;8445;51.270;9.434;2024-01-07T00:36:26;2.40;85.50
16663;DHT22;8445;51.270;9.434;2024-01-07T00:38:54;2.40;85.40
16663;DHT22;8445;51.270;9.434;2024-01-07T00:41:20;2.40;85.40
16663;DHT22;8445;51.270;9.434;2024-01-07T00:43:46;2.30;85.40
16663;DHT22;8445;51.270;9.434;2024-01-07T00:46:12;2.30;85.40
16663;DHT22;8445;51.270;9.434;2024-01-07T00:48:38;2.30;85.40
16663;DHT22;8445;51.270;9.434;2024-01-07T00:51:04;2.30;85.50
16663;DHT22;8445;51.270;9.434;2024-01-07T00:53:32;2.30;85.40
16663;DHT22;8445;51.270;9.434;2024-01-07T00:55:58;2.30;85.40
16663;DHT22;8445;51.270;9.434;2024-01-07T00:58:24;2.30;85.30
16663;DHT22;8445;51.270;9.434;2024-01-07T01:00:50;2.30;85.20
16663;DHT22;8445;51.270;9.434;2024-01-07T01:03:16;2.20;85.20
16663;DHT22;8445;51.270;9.434;2024-01-07T01:05:43;2.20;85.20
16663;DHT22;8445;51.270;9.434;2024-01-07T01:08:11;2.20;85.10
16663;DHT22;8445;51.270;9.434;2024-01-07T01:10:41;2.20;85.00
16663;DHT22;8445;51.270;9.434;2024-01-07T01:13:06;2.20;85.00
16663;DHT22;8445;51.270;9.434;2024-01-07T01:15:32;2.20;84.70
16663;DHT22;8445;51.270;9.434;2024-01-07T01:17:58;2.20;84.70
16663;DHT22;8445;51.270;9.434;2024-01-07T01:20:25;2.20;84.70
16663;DHT22;8445;51.270;9.434;2024-01-07T01:22:51;2.10;84.60
16663;DHT22;8445;51.270;9.434;2024-01-07T01:25:17;2.10;84.60
16663;DHT22;8445;51.270;9.434;2024-01-07T01:27:45;2.10;84.60
16663;DHT22;8445;51.270;9.434;2024-01-07T01:30:11;2.10;84.40
16663;DHT22;8445;51.270;9.434;2024-01-07T01:32:38;2.10;84.40
16663;DHT22;8445;51.270;9.434;2024-01-07T01:35:05;2.10;84.30
16663;DHT22;8445;51.270;9.434;2024-01-07T01:37:34;2.10;84.20
16663;DHT22;8445;51.270;9.434;2024-01-07T01:39:59;2.10;84.20
16663;DHT22;8445;51.270;9.434;2024-01-07T01:42:28;2.10;83.90
16663;DHT22;8445;51.270;9.434;2024-01-07T01:44:54;2.10;83.90
16663;DHT22;8445;51.270;9.434;2024-01-07T01:47:23;2.20;83.80
16663;DHT22;8445;51.270;9.434;2024-01-07T01:49:49;2.10;83.60
16663;DHT22;8445;51.270;9.434;2024-01-07T01:52:16;2.10;83.50
16663;DHT22;8445;51.270;9.434;2024-01-07T01:54:42;2.10;83.50
16663;DHT22;8445;51.270;9.434;2024-01-07T01:57:15;2.10;83.40
16663;DHT22;8445;51.270;9.434;2024-01-07T01:59:46;2.10;83.50
16663;DHT22;8445;51.270;9.434;2024-01-07T02:02:13;2.10;83.50
16663;DHT22;8445;51.270;9.434;2024-01-07T02:04:40;2.00;83.60
16663;DHT22;8445;51.270;9.434;2024-01-07T02:07:06;2.00;83.40
16663;DHT22;8445;51.270;9.434;2024-01-07T02:09:32;2.00;83.40
16663;DHT22;8445;51.270;9.434;2024-01-07T02:12:06;2.00;83.40
16663;DHT22;8445;51.270;9.434;2024-01-07T02:14:38;2.00;83.50
16663;DHT22;8445;51.270;9.434;2024-01-07T02:17:05;1.90;83.50
16663;DHT22;8445;51.270;9.434;2024-01-07T02:19:31;1.90;83.50
16663;DHT22;8445;51.270;9.434;2024-01-07T02:21:56;1.90;83.50
16663;DHT22;8445;51.270;9.434;2024-01-07T02:24:22;1.80;83.60
16663;DHT22;8445;51.270;9.434;2024-01-07T02:26:48;1.80;83.60
16663;DHT22;8445;51.270;9.434;2024-01-07T02:29:17;1.80;83.50
16663;DHT22;8445;51.270;9.434;2024-01-07T02:31:43;1.80;83.60
16663;DHT22;8445;51.270;9.434;2024-01-07T02:34:09;1.80;83.70
16663;DHT22;8445;51.270;9.434;2024-01-07T02:36:36;1.70;83.60
16663;DHT22;8445;51.270;9.434;2024-01-07T02:39:02;1.80;83.60
16663;DHT22;8445;51.270;9.434;2024-01-07T02:41:30;1.70;83.50
16663;DHT22;8445;51.270;9.434;2024-01-07T02:43:56;1.70;83.60
16663;DHT22;8445;51.270;9.434;2024-01-07T02:46:24;1.70;83.50
16663;DHT22;8445;51.270;9.434;2024-01-07T02:48:50;1.60;83.50
16663;DHT22;8445;51.270;9.434;2024-01-07T02:51:16;1.60;83.70
16663;DHT22;8445;51.270;9.434;2024-01-07T02:53:45;1.60;83.80
16663;DHT22;8445;51.270;9.434;2024-01-07T02:56:10;1.60;83.70
16663;DHT22;8445;51.270;9.434;2024-01-07T02:58:36;1.50;83.80
16663;DHT22;8445;51.270;9.434;2024-01-07T03:01:08;1.50;83.90
16663;DHT22;8445;51.270;9.434;2024-01-07T03:03:34;1.50;83.80
16663;DHT22;8445;51.270;9.434;2024-01-07T03:06:00;1.50;83.80
16663;DHT22;8445;51.270;9.434;2024-01-07T03:08:31;1.50;83.90
16663;DHT22;8445;51.270;9.434;2024-01-07T03:11:04;1.50;83.90
16663;DHT22;8445;51.270;9.434;2024-01-07T03:13:33;1.50;83.70
16663;DHT22;8445;51.270;9.434;2024-01-07T03:16:00;1.50;83.70
16663;DHT22;8445;51.270;9.434;2024-01-07T03:18:27;1.50;83.70
16663;DHT22;8445;51.270;9.434;2024-01-07T03:20:57;1.40;83.70
16663;DHT22;8445;51.270;9.434;2024-01-07T03:23:23;1.50;83.60
16663;DHT22;8445;51.270;9.434;2024-01-07T03:25:51;1.40;83.70
16663;DHT22;8445;51.270;9.434;2024-01-07T03:28:17;1.40;83.90
16663;DHT22;8445;51.270;9.434;2024-01-07T03:30:43;1.40;83.70
16663;DHT22;8445;51.270;9.434;2024-01-07T03:33:09;1.40;83.70
16663;DHT22;8445;51.270;9.434;2024-01-07T03:35:35;1.40;83.70
16663;DHT22;8445;51.270;9.434;2024-01-07T03:38:01;1.40;83.60
16663;DHT22;8445;51.270;9.434;2024-01-07T03:40:27;1.40;83.60
16663;DHT22;8445;51.270;9.434;2024-01-07T03:43:03;1.40;83.60
16663;DHT22;8445;51.270;9.434;2024-01-07T03:45:29;1.40;83.70
16663;DHT22;8445;51.270;9.434;2024-01-07T03:47:55;1.40;83.70
16663;DHT22;8445;51.270;9.434;2024-01-07T03:50:21;1.40;83.50
16663;DHT22;8445;51.270;9.434;2024-01-07T03:52:47;1.40;83.60
16663;DHT22;8445;51.270;9.434;2024-01-07T03:55:15;1.50;83.50
16663;DHT22;8445;51.270;9.434;2024-01-07T03:57:41;1.40;83.40
16663;DHT22;8445;51.270;9.434;2024-01-07T04:00:07;1.40;83.30
16663;DHT22;8445;51.270;9.434;2024-01-07T04:02:33;1.40;83.40
16663;DHT22;8445;51.270;9.434;2024-01-07T04:05:02;1.40;83.30
16663;DHT22;8445;51.270;9.434;2024-01-07T04:07:28;1.40;83.30
16663;DHT22;8445;51.270;9.434;2024-01-07T04:09:53;1.40;83.20
16663;DHT22;8445;51.270;9.434;2024-01-07T04:12:22;1.40;83.30
16663;DHT22;8445;51.270;9.434;2024-01-07T04:14:48;1.40;83.30
16663;DHT22;8445;51.270;9.434;2024-01-07T04:17:13;1.40;83.30
16663;DHT22;8445;51.270;9.434;2024-01-07T04:19:39;1.40;83.20
16663;DHT22;8445;51.270;9.434;2024-01-07T04:22:05;1.40;83.40
16663;DHT22;8445;51.270;9.434;2024-01-07T04:24:34;1.40;83.30
16663;DHT22;8445;51.270;9.434;2024-01-07T04:27:04;1.40;83.40
16663;DHT22;8445;51.270;9.434;2024-01-07T04:29:33;1.40;83.20
16663;DHT22;8445;51.270;9.434;2024-01-07T04:31:59;1.40;83.10
16663;DHT22;8445;51.270;9.434;2024-01-07T04:34:25;1.40;83.10
16663;DHT22;8445;51.270;9.434;2024-01-07T04:36:53;1.30;83.20
16663;DHT22;8445;51.270;9.434;2024-01-07T04:39:19;1.30;83.20
16663;DHT22;8445;51.270;9.434;2024-01-07T04:41:45;1.20;83.10
16663;DHT22;8445;51.270;9.434;2024-01-07T04:44:10;1.20;83.20
16663;DHT22;8445;51.270;9.434;2024-01-07T04:46:40;1.10;83.40
16663;DHT22;8445;51.270;9.434;2024-01-07T04:49:06;1.00;83.60
16663;DHT22;8445;51.270;9.434;2024-01-07T04:51:32;1.00;83.90
16663;DHT22;8445;51.270;9.434;2024-01-07T04:53:59;1.00;84.00
16663;DHT22;8445;51.270;9.434;2024-01-07T04:56:28;1.00;83.90
16663;DHT22;8445;51.270;9.434;2024-01-07T04:58:54;1.00;83.70
16663;DHT22;8445;51.270;9.434;2024-01-07T05:01:20;1.00;83.70
16663;DHT22;8445;51.270;9.434;2024-01-07T05:03:46;0.90;83.80
16663;DHT22;8445;51.270;9.434;2024-01-07T05:06:12;0.90;83.90
16663;DHT22;8445;51.270;9.434;2024-01-07T05:08:42;0.90;83.90
16663;DHT22;8445;51.270;9.434;2024-01-07T05:11:09;0.90;83.70
16663;DHT22;8445;51.270;9.434;2024-01-07T05:13:35;0.90;83.40
16663;DHT22;8445;51.270;9.434;2024-01-07T05:16:01;0.90;83.10
16663;DHT22;8445;51.270;9.434;2024-01-07T05:18:28;0.90;82.90
16663;DHT22;8445;51.270;9.434;2024-01-07T05:20:54;0.90;82.70
16663;DHT22;8445;51.270;9.434;2024-01-07T05:23:20;0.80;82.60
16663;DHT22;8445;51.270;9.434;2024-01-07T05:25:46;0.80;82.40
16663;DHT22;8445;51.270;9.434;2024-01-07T05:28:13;0.80;82.30
16663;DHT22;8445;51.270;9.434;2024-01-07T05:30:47;0.80;82.30
16663;DHT22;8445;51.270;9.434;2024-01-07T05:33:13;0.80;82.30
16663;DHT22;8445;51.270;9.434;2024-01-07T05:35:38;0.80;82.40
16663;DHT22;8445;51.270;9.434;2024-01-07T05:38:06;0.70;82.10
16663;DHT22;8445;51.270;9.434;2024-01-07T05:40:32;0.70;82.00
16663;DHT22;8445;51.270;9.434;2024-01-07T05:43:01;0.70;82.00
16663;DHT22;8445;51.270;9.434;2024-01-07T05:45:27;0.70;81.90
16663;DHT22;8445;51.270;9.434;2024-01-07T05:47:53;0.60;81.70
16663;DHT22;8445;51.270;9.434;2024-01-07T05:50:18;0.60;81.30
16663;DHT22;8445;51.270;9.434;2024-01-07T05:52:46;0.60;80.90
16663;DHT22;8445;51.270;9.434;2024-01-07T05:55:14;0.60;80.70
16663;DHT22;8445;51.270;9.434;2024-01-07T05:57:42;0.50;80.80
16663;DHT22;8445;51.270;9.434;2024-01-07T06:00:09;0.50;80.90
16663;DHT22;8445;51.270;9.434;2024-01-07T06:02:39;0.50;81.00
16663;DHT22;8445;51.270;9.434;2024-01-07T06:05:08;0.50;80.90
16663;DHT22;8445;51.270;9.434;2024-01-07T06:07:34;0.50;80.80
16663;DHT22;8445;51.270;9.434;2024-01-07T06:10:00;0.50;80.70
16663;DHT22;8445;51.270;9.434;2024-01-07T06:12:26;0.50;80.20
16663;DHT22;8445;51.270;9.434;2024-01-07T06:14:54;0.50;80.10
16663;DHT22;8445;51.270;9.434;2024-01-07T06:17:22;0.50;80.40
16663;DHT22;8445;51.270;9.434;2024-01-07T06:19:48;0.50;79.90
16663;DHT22;8445;51.270;9.434;2024-01-07T06:22:14;0.50;80.00
16663;DHT22;8445;51.270;9.434;2024-01-07T06:24:40;0.50;80.10
16663;DHT22;8445;51.270;9.434;2024-01-07T06:27:05;0.50;80.20
16663;DHT22;8445;51.270;9.434;2024-01-07T06:29:31;0.50;80.10
16663;DHT22;8445;51.270;9.434;2024-01-07T06:31:57;0.50;80.00
16663;DHT22;8445;51.270;9.434;2024-01-07T06:34:23;0.50;79.60
16663;DHT22;8445;51.270;9.434;2024-01-07T06:36:49;0.50;79.40
16663;DHT22;8445;51.270;9.434;2024-01-07T06:39:15;0.50;79.10
16663;DHT22;8445;51.270;9.434;2024-01-07T06:41:43;0.50;79.10
16663;DHT22;8445;51.270;9.434;2024-01-07T06:44:12;0.50;78.60
16663;DHT22;8445;51.270;9.434;2024-01-07T06:46:38;0.50;78.60
16663;DHT22;8445;51.270;9.434;2024-01-07T06:49:04;0.50;78.50
16663;DHT22;8445;51.270;9.434;2024-01-07T06:51:30;0.50;78.70
16663;DHT22;8445;51.270;9.434;2024-01-07T06:53:56;0.50;79.30
16663;DHT22;8445;51.270;9.434;2024-01-07T06:56:22;0.60;80.10
16663;DHT22;8445;51.270;9.434;2024-01-07T06:58:50;0.70;80.20
16663;DHT22;8445;51.270;9.434;2024-01-07T07:01:21;0.80;80.10
16663;DHT22;8445;51.270;9.434;2024-01-07T07:03:50;1.00;79.90
16663;DHT22;8445;51.270;9.434;2024-01-07T07:06:18;1.00;79.10
16663;DHT22;8445;51.270;9.434;2024-01-07T07:08:46;1.10;78.70
16663;DHT22;8445;51.270;9.434;2024-01-07T07:11:12;1.10;78.50
16663;DHT22;8445;51.270;9.434;2024-01-07T07:13:38;1.10;78.20
16663;DHT22;8445;51.270;9.434;2024-01-07T07:16:06;1.10;77.80
16663;DHT22;8445;51.270;9.434;2024-01-07T07:18:33;1.00;77.80
16663;DHT22;8445;51.270;9.434;2024-01-07T07:21:03;1.00;76.80
16663;DHT22;8445;51.270;9.434;2024-01-07T07:23:39;1.00;76.70
16663;DHT22;8445;51.270;9.434;2024-01-07T07:26:17;0.80;76.60
16663;DHT22;8445;51.270;9.434;2024-01-07T07:28:49;0.60;76.30
16663;DHT22;8445;51.270;9.434;2024-01-07T07:31:45;0.50;76.30
16663;DHT22;8445;51.270;9.434;2024-01-07T07:34:13;0.30;76.80
16663;DHT22;8445;51.270;9.434;2024-01-07T07:36:45;0.20;77.00
16663;DHT22;8445;51.270;9.434;2024-01-07T07:39:28;0.20;77.10
16663;DHT22;8445;51.270;9.434;2024-01-07T07:42:15;0.10;77.20
16663;DHT22;8445;51.270;9.434;2024-01-07T07:44:42;0.00;77.20
16663;DHT22;8445;51.270;9.434;2024-01-07T07:47:11;0.00;77.20
16663;DHT22;8445;51.270;9.434;2024-01-07T07:49:45;0.00;77.10
16663;DHT22;8445;51.270;9.434;2024-01-07T07:52:16;0.00;76.90
16663;DHT22;8445;51.270;9.434;2024-01-07T07:54:54;0.00;77.10
16663;DHT22;8445;51.270;9.434;2024-01-07T07:57:27;0.00;76.90
16663;DHT22;8445;51.270;9.434;2024-01-07T07:59:56;0.00;76.80
16663;DHT22;8445;51.270;9.434;2024-01-07T08:02:27;0.00;76.70
16663;DHT22;8445;51.270;9.434;2024-01-07T08:05:16;-0.10;76.50
16663;DHT22;8445;51.270;9.434;2024-01-07T08:07:48;-0.10;76.40
16663;DHT22;8445;51.270;9.434;2024-01-07T08:10:17;-0.10;76.50
16663;DHT22;8445;51.270;9.434;2024-01-07T08:12:46;-0.10;76.60
16663;DHT22;8445;51.270;9.434;2024-01-07T08:15:44;-0.20;76.50
16663;DHT22;8445;51.270;9.434;2024-01-07T08:18:16;-0.20;76.30
16663;DHT22;8445;51.270;9.434;2024-01-07T08:20:49;-0.20;76.50
16663;DHT22;8445;51.270;9.434;2024-01-07T08:23:21;-0.20;76.50
16663;DHT22;8445;51.270;9.434;2024-01-07T08:25:50;-0.20;76.50
16663;DHT22;8445;51.270;9.434;2024-01-07T08:28:24;-0.20;76.70
16663;DHT22;8445;51.270;9.434;2024-01-07T08:30:54;-0.20;76.60
16663;DHT22;8445;51.270;9.434;2024-01-07T08:33:22;-0.20;76.80
16663;DHT22;8445;51.270;9.434;2024-01-07T08:35:49;-0.30;76.90
16663;DHT22;8445;51.270;9.434;2024-01-07T08:38:16;-0.20;77.00
16663;DHT22;8445;51.270;9.434;2024-01-07T08:40:42;-0.20;77.10
16663;DHT22;8445;51.270;9.434;2024-01-07T08:43:09;-0.20;77.00
16663;DHT22;8445;51.270;9.434;2024-01-07T08:45:36;-0.20;77.00
16663;DHT22;8445;51.270;9.434;2024-01-07T08:48:02;-0.20;77.10
16663;DHT22;8445;51.270;9.434;2024-01-07T08:50:29;-0.20;77.00
16663;DHT22;8445;51.270;9.434;2024-01-07T08:52:55;-0.20;76.90
16663;DHT22;8445;51.270;9.434;2024-01-07T08:55:21;-0.20;77.00
16663;DHT22;8445;51.270;9.434;2024-01-07T08:57:50;-0.20;77.00
16663;DHT22;8445;51.270;9.434;2024-01-07T09:00:22;-0.20;76.70
16663;DHT22;8445;51.270;9.434;2024-01-07T09:02:55;-0.20;76.60
16663;DHT22;8445;51.270;9.434;2024-01-07T09:05:22;-0.20;76.50
16663;DHT22;8445;51.270;9.434;2024-01-07T09:07:50;-0.20;76.30
16663;DHT22;8445;51.270;9.434;2024-01-07T09:10:18;-0.30;76.50
16663;DHT22;8445;51.270;9.434;2024-01-07T09:12:46;-0.20;76.50
16663;DHT22;8445;51.270;9.434;2024-01-07T09:15:18;-0.20;76.60
16663;DHT22;8445;51.270;9.434;2024-01-07T09:17:46;-0.20;76.60
16663;DHT22;8445;51.270;9.434;2024-01-07T09:20:18;-0.20;76.30
16663;DHT22;8445;51.270;9.434;2024-01-07T09:22:54;-0.20;76.20
16663;DHT22;8445;51.270;9.434;2024-01-07T09:25:22;-0.20;75.60
16663;DHT22;8445;51.270;9.434;2024-01-07T09:27:50;-0.20;75.80
16663;DHT22;8445;51.270;9.434;2024-01-07T09:30:26;-0.20;75.70
16663;DHT22;8445;51.270;9.434;2024-01-07T09:32:59;-0.20;74.90
16663;DHT22;8445;51.270;9.434;2024-01-07T09:35:29;-0.20;74.90
16663;DHT22;8445;51.270;9.434;2024-01-07T09:38:01;-0.20;74.70
16663;DHT22;8445;51.270;9.434;2024-01-07T09:40:30;-0.20;73.70
16663;DHT22;8445;51.270;9.434;2024-01-07T09:42:56;-0.20;73.60
16663;DHT22;8445;51.270;9.434;2024-01-07T09:45:25;-0.30;72.60
16663;DHT22;8445;51.270;9.434;2024-01-07T09:47:52;-0.30;72.70
16663;DHT22;8445;51.270;9.434;2024-01-07T09:50:17;-0.30;72.40
16663;DHT22;8445;51.270;9.434;2024-01-07T09:52:44;-0.30;71.50
16663;DHT22;8445;51.270;9.434;2024-01-07T09:55:20;-0.40;71.60
16663;DHT22;8445;51.270;9.434;2024-01-07T09:57:53;-0.40;71.70
16663;DHT22;8445;51.270;9.434;2024-01-07T10:00:22;-0.50;71.30
16663;DHT22;8445;51.270;9.434;2024-01-07T10:02:55;-0.50;70.90
16663;DHT22;8445;51.270;9.434;2024-01-07T10:05:22;-0.50;71.10
16663;DHT22;8445;51.270;9.434;2024-01-07T10:07:50;-0.50;70.30
16663;DHT22;8445;51.270;9.434;2024-01-07T10:10:20;-0.50;69.80
16663;DHT22;8445;51.270;9.434;2024-01-07T10:12:46;-0.50;70.10
16663;DHT22;8445;51.270;9.434;2024-01-07T10:15:13;-0.60;70.70
16663;DHT22;8445;51.270;9.434;2024-01-07T10:17:41;-0.50;71.40
16663;DHT22;8445;51.270;9.434;2024-01-07T10:20:08;-0.40;70.30
16663;DHT22;8445;51.270;9.434;2024-01-07T10:22:37;-0.40;69.50
16663;DHT22;8445;51.270;9.434;2024-01-07T10:25:04;-0.40;69.50
16663;DHT22;8445;51.270;9.434;2024-01-07T10:27:34;-0.40;69.60
16663;DHT22;8445;51.270;9.434;2024-01-07T10:30:02;-0.40;69.70
16663;DHT22;8445;51.270;9.434;2024-01-07T10:32:32;-0.40;69.30
16663;DHT22;8445;51.270;9.434;2024-01-07T10:35:02;-0.30;68.80
16663;DHT22;8445;51.270;9.434;2024-01-07T10:37:30;-0.30;68.00
16663;DHT22;8445;51.270;9.434;2024-01-07T10:40:01;-0.20;67.60
16663;DHT22;8445;51.270;9.434;2024-01-07T10:42:33;-0.20;68.00
16663;DHT22;8445;51.270;9.434;2024-01-07T10:45:00;-0.20;68.30
16663;DHT22;8445;51.270;9.434;2024-01-07T10:47:30;-0.20;68.70
16663;DHT22;8445;51.270;9.434;2024-01-07T10:49:58;-0.10;67.60
16663;DHT22;8445;51.270;9.434;2024-01-07T10:52:27;0.00;66.40
16663;DHT22;8445;51.270;9.434;2024-01-07T10:54:56;0.00;65.70
16663;DHT22;8445;51.270;9.434;2024-01-07T10:57:43;-0.10;65.60
16663;DHT22;8445;51.270;9.434;2024-01-07T11:00:16;-0.10;66.20
16663;DHT22;8445;51.270;9.434;2024-01-07T11:03:07;-0.10;65.70
16663;DHT22;8445;51.270;9.434;2024-01-07T11:06:03;-0.10;65.20
16663;DHT22;8445;51.270;9.434;2024-01-07T11:08:59;-0.10;65.20
16663;DHT22;8445;51.270;9.434;2024-01-07T11:11:41;-0.20;64.90
16663;DHT22;8445;51.270;9.434;2024-01-07T11:14:34;-0.30;65.10
16663;DHT22;8445;51.270;9.434;2024-01-07T11:17:05;-0.30;65.30
16663;DHT22;8445;51.270;9.434;2024-01-07T11:19:32;-0.30;65.30
16663;DHT22;8445;51.270;9.434;2024-01-07T11:22:28;-0.30;65.40
16663;DHT22;8445;51.270;9.434;2024-01-07T11:24:58;-0.30;65.30
16663;DHT22;8445;51.270;9.434;2024-01-07T11:27:28;-0.20;65.80
16663;DHT22;8445;51.270;9.434;2024-01-07T11:30:05;-0.20;65.80
16663;DHT22;8445;51.270;9.434;2024-01-07T11:32:45;-0.10;65.70
16663;DHT22;8445;51.270;9.434;2024-01-07T11:35:14;0.00;65.30
16663;DHT22;8445;51.270;9.434;2024-01-07T11:37:41;0.00;64.70
16663;DHT22;8445;51.270;9.434;2024-01-07T11:40:08;0.10;63.20
16663;DHT22;8445;51.270;9.434;2024-01-07T11:42:34;0.10;62.00
16663;DHT22;8445;51.270;9.434;2024-01-07T11:45:00;0.20;61.50
16663;DHT22;8445;51.270;9.434;2024-01-07T11:47:26;0.20;60.30
16663;DHT22;8445;51.270;9.434;2024-01-07T11:49:53;0.20;58.20
16663;DHT22;8445;51.270;9.434;2024-01-07T11:52:23;0.10;58.50
16663;DHT22;8445;51.270;9.434;2024-01-07T11:54:49;0.00;58.20
16663;DHT22;8445;51.270;9.434;2024-01-07T11:57:16;0.00;58.80
16663;DHT22;8445;51.270;9.434;2024-01-07T11:59:42;0.00;57.20
16663;DHT22;8445;51.270;9.434;2024-01-07T12:02:08;0.00;57.70
16663;DHT22;8445;51.270;9.434;2024-01-07T12:04:36;0.00;58.00
16663;DHT22;8445;51.270;9.434;2024-01-07T12:07:02;0.00;57.90
16663;DHT22;8445;51.270;9.434;2024-01-07T12:09:32;0.00;56.30
16663;DHT22;8445;51.270;9.434;2024-01-07T12:12:00;0.00;56.10
16663;DHT22;8445;51.270;9.434;2024-01-07T12:14:27;-0.10;56.60
16663;DHT22;8445;51.270;9.434;2024-01-07T12:16:53;-0.10;56.90
16663;DHT22;8445;51.270;9.434;2024-01-07T12:19:21;-0.20;57.40
16663;DHT22;8445;51.270;9.434;2024-01-07T12:21:49;-0.20;57.70
16663;DHT22;8445;51.270;9.434;2024-01-07T12:24:27;-0.20;57.80
16663;DHT22;8445;51.270;9.434;2024-01-07T12:26:53;-0.20;57.50
16663;DHT22;8445;51.270;9.434;2024-01-07T12:29:21;-0.20;57.40
16663;DHT22;8445;51.270;9.434;2024-01-07T12:31:51;-0.20;56.90
16663;DHT22;8445;51.270;9.434;2024-01-07T12:34:17;-0.10;56.90
16663;DHT22;8445;51.270;9.434;2024-01-07T12:36:44;-0.10;57.20
16663;DHT22;8445;51.270;9.434;2024-01-07T12:39:14;-0.10;57.10
16663;DHT22;8445;51.270;9.434;2024-01-07T12:41:40;-0.10;57.40
16663;DHT22;8445;51.270;9.434;2024-01-07T12:44:06;-0.10;57.70
16663;DHT22;8445;51.270;9.434;2024-01-07T12:46:34;0.00;57.20
16663;DHT22;8445;51.270;9.434;2024-01-07T12:49:00;0.00;57.30
16663;DHT22;8445;51.270;9.434;2024-01-07T12:51:26;0.00;56.90
16663;DHT22;8445;51.270;9.434;2024-01-07T12:53:52;0.00;57.50
16663;DHT22;8445;51.270;9.434;2024-01-07T12:56:18;0.00;57.70
16663;DHT22;8445;51.270;9.434;2024-01-07T12:58:44;0.00;57.60
16663;DHT22;8445;51.270;9.434;2024-01-07T13:01:10;-0.10;57.80
16663;DHT22;8445;51.270;9.434;2024-01-07T13:03:36;-0.10;58.00
16663;DHT22;8445;51.270;9.434;2024-01-07T13:06:05;-0.10;57.70
16663;DHT22;8445;51.270;9.434;2024-01-07T13:08:32;0.00;56.60
16663;DHT22;8445;51.270;9.434;2024-01-07T13:11:00;-0.10;56.10
16663;DHT22;8445;51.270;9.434;2024-01-07T13:13:28;-0.10;56.60
16663;DHT22;8445;51.270;9.434;2024-01-07T13:15:54;-0.20;56.60
16663;DHT22;8445;51.270;9.434;2024-01-07T13:18:22;-0.20;56.50
16663;DHT22;8445;51.270;9.434;2024-01-07T13:20:48;-0.30;56.10
16663;DHT22;8445;51.270;9.434;2024-01-07T13:23:14;-0.30;56.40
16663;DHT22;8445;51.270;9.434;2024-01-07T13:25:40;-0.30;56.60
16663;DHT22;8445;51.270;9.434;2024-01-07T13:28:06;-0.30;56.80
16663;DHT22;8445;51.270;9.434;2024-01-07T13:30:36;-0.30;57.10
16663;DHT22;8445;51.270;9.434;2024-01-07T13:33:08;-0.30;57.20
16663;DHT22;8445;51.270;9.434;2024-01-07T13:35:34;-0.40;57.20
16663;DHT22;8445;51.270;9.434;2024-01-07T13:38:00;-0.40;57.20
16663;DHT22;8445;51.270;9.434;2024-01-07T13:40:27;-0.40;57.10
16663;DHT22;8445;51.270;9.434;2024-01-07T13:42:53;-0.40;57.40
16663;DHT22;8445;51.270;9.434;2024-01-07T13:45:19;-0.50;57.60
16663;DHT22;8445;51.270;9.434;2024-01-07T13:47:46;-0.50;58.10
16663;DHT22;8445;51.270;9.434;2024-01-07T13:50:17;-0.60;58.00
16663;DHT22;8445;51.270;9.434;2024-01-07T13:52:43;-0.60;58.30
16663;DHT22;8445;51.270;9.434;2024-01-07T13:55:09;-0.60;58.60
16663;DHT22;8445;51.270;9.434;2024-01-07T13:57:36;-0.60;58.70
16663;DHT22;8445;51.270;9.434;2024-01-07T14:00:02;-0.50;58.30
16663;DHT22;8445;51.270;9.434;2024-01-07T14:02:36;-0.50;58.20
16663;DHT22;8445;51.270;9.434;2024-01-07T14:05:07;-0.60;58.20
16663;DHT22;8445;51.270;9.434;2024-01-07T14:07:35;-0.60;57.60
16663;DHT22;8445;51.270;9.434;2024-01-07T14:10:01;-0.60;57.70
16663;DHT22;8445;51.270;9.434;2024-01-07T14:12:29;-0.60;58.10
16663;DHT22;8445;51.270;9.434;2024-01-07T14:14:55;-0.70;58.60
16663;DHT22;8445;51.270;9.434;2024-01-07T14:17:21;-0.70;58.80
16663;DHT22;8445;51.270;9.434;2024-01-07T14:19:47;-0.80;59.10
16663;DHT22;8445;51.270;9.434;2024-01-07T14:22:13;-0.70;59.00
16663;DHT22;8445;51.270;9.434;2024-01-07T14:24:40;-0.70;58.80
16663;DHT22;8445;51.270;9.434;2024-01-07T14:27:06;-0.80;59.10
16663;DHT22;8445;51.270;9.434;2024-01-07T14:29:32;-0.80;59.20
16663;DHT22;8445;51.270;9.434;2024-01-07T14:32:01;-0.80;59.20
16663;DHT22;8445;51.270;9.434;2024-01-07T14:34:28;-0.80;59.00
16663;DHT22;8445;51.270;9.434;2024-01-07T14:36:55;-0.80;58.70
16663;DHT22;8445;51.270;9.434;2024-01-07T14:39:21;-0.80;58.70
16663;DHT22;8445;51.270;9.434;2024-01-07T14:41:47;-0.80;58.70
16663;DHT22;8445;51.270;9.434;2024-01-07T14:44:13;-0.90;58.70
16663;DHT22;8445;51.270;9.434;2024-01-07T14:46:39;-0.90;58.70
16663;DHT22;8445;51.270;9.434;2024-01-07T14:49:05;-0.90;58.70
16663;DHT22;8445;51.270;9.434;2024-01-07T14:51:32;-0.90;58.70
16663;DHT22;8445;51.270;9.434;2024-01-07T14:53:58;-0.90;58.80
16663;DHT22;8445;51.270;9.434;2024-01-07T14:56:25;-0.90;58.60
16663;DHT22;8445;51.270;9.434;2024-01-07T14:58:52;-0.90;58.50
16663;DHT22;8445;51.270;9.434;2024-01-07T15:01:18;-0.90;58.90
16663;DHT22;8445;51.270;9.434;2024-01-07T15:03:44;-0.90;59.00
16663;DHT22;8445;51.270;9.434;2024-01-07T15:06:12;-0.90;58.70
16663;DHT22;8445;51.270;9.434;2024-01-07T15:08:41;-0.90;59.00
16663;DHT22;8445;51.270;9.434;2024-01-07T15:11:11;-0.90;58.70
16663;DHT22;8445;51.270;9.434;2024-01-07T15:13:37;-0.90;58.40
16663;DHT22;8445;51.270;9.434;2024-01-07T15:16:05;-0.90;58.20
16663;DHT22;8445;51.270;9.434;2024-01-07T15:18:31;-0.90;58.50
16663;DHT22;8445;51.270;9.434;2024-01-07T15:20:57;-1.00;58.70
16663;DHT22;8445;51.270;9.434;2024-01-07T15:23:23;-1.00;59.00
16663;DHT22;8445;51.270;9.434;2024-01-07T15:25:50;-1.00;59.30
16663;DHT22;8445;51.270;9.434;2024-01-07T15:28:18;-1.00;59.40
16663;DHT22;8445;51.270;9.434;2024-01-07T15:30:44;-1.00;59.50
16663;DHT22;8445;51.270;9.434;2024-01-07T15:33:10;-1.00;59.50
16663;DHT22;8445;51.270;9.434;2024-01-07T15:35:38;-1.00;59.50
16663;DHT22;8445;51.270;9.434;2024-01-07T15:38:04;-1.00;59.70
16663;DHT22;8445;51.270;9.434;2024-01-07T15:40:30;-1.00;59.80
16663;DHT22;8445;51.270;9.434;2024-01-07T15:42:56;-1.00;60.10
16663;DHT22;8445;51.270;9.434;2024-01-07T15:45:25;-1.00;60.10
16663;DHT22;8445;51.270;9.434;2024-01-07T15:47:51;-0.90;60.10
16663;DHT22;8445;51.270;9.434;2024-01-07T15:50:17;-0.90;60.20
16663;DHT22;8445;51.270;9.434;2024-01-07T15:52:43;-0.90;60.20
16663;DHT22;8445;51.270;9.434;2024-01-07T15:55:14;-0.90;60.40
16663;DHT22;8445;51.270;9.434;2024-01-07T15:57:43;-0.90;60.60
16663;DHT22;8445;51.270;9.434;2024-01-07T16:00:10;-0.90;60.60
16663;DHT22;8445;51.270;9.434;2024-01-07T16:02:37;-0.80;60.60